Time;durP1;ratioP1;P1;durP2;ratioP2;P2;SDS_P1;SDS_P2;PMS_P1;PMS_P2;Temp;Humidity;BMP_temperature;BMP_pressure;BME280_temperature;BME280_humidity;BME280_pressure;Samples;Min_cycle;Max_cycle;Signal;HPM_P1;HPM_P2
2023/03/29 00:01:48;;;;;;;7.17;2.70;;;;;;;4.87;100.00;101981.06;5023590;28;20590;-69
2023/03/29 00:04:18;;;;;;;8.07;3.10;;;;;;;4.85;100.00;101991.16;5022944;28;20581;-69
2023/03/29 00:06:46;;;;;;;5.63;2.73;;;;;;;4.87;100.00;101976.88;5022359;28;20293;-69
2023/03/29 00:09:14;;;;;;;7.97;3.10;;;;;;;4.90;100.00;101982.16;4997822;28;20198;-69
2023/03/29 00:11:40;;;;;;;7.73;2.70;;;;;;;4.91;100.00;101971.22;5024216;28;20186;-69
2023/03/29 00:14:05;;;;;;;7.63;3.70;;;;;;;4.93;100.00;101973.84;5021560;28;20220;-69
2023/03/29 00:16:31;;;;;;;5.40;2.70;;;;;;;4.92;100.00;101967.88;5020436;28;20194;-69
2023/03/29 00:18:57;;;;;;;5.77;2.70;;;;;;;4.89;100.00;101967.72;5014173;28;20289;-69
2023/03/29 00:21:23;;;;;;;5.97;3.17;;;;;;;4.89;100.00;101949.06;5022707;28;20197;-70
2023/03/29 00:23:49;;;;;;;6.93;2.73;;;;;;;4.90;100.00;101940.69;5020834;28;20214;-70
2023/03/29 00:26:14;;;;;;;7.40;2.90;;;;;;;4.91;100.00;101935.69;5000117;28;20699;-70
2023/03/29 00:28:40;;;;;;;7.97;2.97;;;;;;;4.89;100.00;101938.94;5025421;28;20230;-70
2023/03/29 00:31:12;;;;;;;6.53;3.07;;;;;;;4.90;100.00;101941.56;5020677;28;20237;-69
2023/03/29 00:33:39;;;;;;;7.53;2.93;;;;;;;4.93;100.00;101933.25;5025627;28;20697;-70
2023/03/29 00:36:05;;;;;;;8.17;3.10;;;;;;;4.93;100.00;101925.66;5018101;28;20201;-70
2023/03/29 00:38:32;;;;;;;7.27;3.03;;;;;;;4.94;100.00;101922.31;5017201;28;20205;-70
2023/03/29 00:40:58;;;;;;;7.67;3.30;;;;;;;4.87;100.00;101913.47;5009354;28;20186;-70
2023/03/29 00:43:24;;;;;;;8.23;3.03;;;;;;;4.87;100.00;101905.84;5026016;28;20218;-71
2023/03/29 00:45:50;;;;;;;8.20;3.30;;;;;;;4.89;100.00;101903.41;5007759;28;20556;-70
2023/03/29 00:48:23;;;;;;;6.03;2.77;;;;;;;4.90;100.00;101898.44;5006876;28;20201;-70
2023/03/29 00:51:02;;;;;;;7.50;3.00;;;;;;;4.87;100.00;101895.69;5020302;28;20582;-71
2023/03/29 00:53:43;;;;;;;5.77;3.30;;;;;;;4.84;100.00;101887.91;4998699;28;20766;-71
2023/03/29 00:56:12;;;;;;;8.60;3.80;;;;;;;4.84;100.00;101885.38;5005125;28;20204;-70
2023/03/29 00:58:47;;;;;;;9.40;3.50;;;;;;;4.82;100.00;101892.03;5018532;28;20588;-70
2023/03/29 01:01:18;;;;;;;9.03;3.20;;;;;;;4.81;100.00;101894.47;5008192;28;20204;-70
2023/03/29 01:03:52;;;;;;;7.27;3.43;;;;;;;4.78;100.00;101889.22;5018852;28;20241;-70
2023/03/29 01:06:23;;;;;;;7.60;3.50;;;;;;;4.77;100.00;101890.88;5021057;28;20222;-71
2023/03/29 01:09:06;;;;;;;6.40;3.17;;;;;;;4.71;100.00;101890.53;4991785;28;20205;-71
2023/03/29 01:11:43;;;;;;;8.60;3.20;;;;;;;4.67;100.00;101888.59;5019850;28;20198;-71
2023/03/29 01:14:20;;;;;;;6.43;3.27;;;;;;;4.70;100.00;101873.53;5005838;28;20223;-70
2023/03/29 01:16:46;;;;;;;7.90;3.33;;;;;;;4.67;100.00;101873.38;5019971;28;20187;-70
2023/03/29 01:19:17;;;;;;;8.60;3.37;;;;;;;4.64;100.00;101872.28;5008467;28;20183;-70
2023/03/29 01:22:27;;;;;;;9.63;3.30;;;;;;;4.61;100.00;101862.00;5004444;28;21094;-70
2023/03/29 01:25:01;;;;;;;6.63;3.20;;;;;;;4.57;100.00;101855.88;4966910;28;20228;-70
2023/03/29 01:27:50;;;;;;;9.00;3.10;;;;;;;4.53;100.00;101847.97;4966775;28;20228;-70
2023/03/29 01:30:35;;;;;;;9.27;2.97;;;;;;;4.48;100.00;101844.28;5006761;28;20209;-70
2023/03/29 01:33:07;;;;;;;4.80;2.43;;;;;;;4.44;100.00;101837.28;5000687;28;20309;-70
2023/03/29 01:35:47;;;;;;;7.33;3.10;;;;;;;4.42;100.00;101834.66;5022438;28;20265;-70
2023/03/29 01:38:24;;;;;;;5.47;3.00;;;;;;;4.44;100.00;101832.22;5026323;28;20218;-70
2023/03/29 01:40:50;;;;;;;6.07;2.77;;;;;;;4.37;100.00;101822.50;5003812;28;20750;-70
2023/03/29 01:43:25;;;;;;;9.50;3.70;;;;;;;4.33;100.00;101818.03;4992841;28;20356;-70
2023/03/29 01:46:09;;;;;;;7.33;3.10;;;;;;;4.31;100.00;101817.94;5006669;28;20204;-69
2023/03/29 01:48:55;;;;;;;5.73;3.07;;;;;;;4.29;100.00;101813.56;5004409;28;20666;-70
2023/03/29 01:51:39;;;;;;;7.63;2.77;;;;;;;4.24;100.00;101803.13;5019675;28;20194;-69
2023/03/29 01:54:17;;;;;;;5.13;2.97;;;;;;;4.24;100.00;101800.59;5024796;28;20271;-71
2023/03/29 01:56:45;;;;;;;6.73;3.10;;;;;;;4.22;100.00;101798.75;5021011;28;20186;-70
2023/03/29 01:59:14;;;;;;;8.10;2.97;;;;;;;4.19;100.00;101783.41;5008013;28;20190;-69
2023/03/29 02:01:47;;;;;;;12.80;3.37;;;;;;;4.20;100.00;101780.06;5025379;28;20252;-70
2023/03/29 02:04:17;;;;;;;7.33;3.20;;;;;;;4.17;100.00;101780.78;5027008;28;20214;-69
2023/03/29 02:06:44;;;;;;;11.20;3.37;;;;;;;4.14;100.00;101777.19;5008607;28;20218;-70
2023/03/29 02:09:11;;;;;;;10.63;3.50;;;;;;;4.08;100.00;101774.25;5012739;28;20194;-70
2023/03/29 02:11:37;;;;;;;9.30;3.70;;;;;;;4.06;100.00;101773.31;5007982;28;20187;-69
2023/03/29 02:14:02;;;;;;;8.17;3.40;;;;;;;4.03;100.00;101773.13;5008029;28;20718;-70
2023/03/29 02:16:36;;;;;;;10.43;3.60;;;;;;;4.03;100.00;101768.03;5008942;28;20184;-70
2023/03/29 02:19:02;;;;;;;7.60;3.83;;;;;;;4.01;100.00;101757.81;5005444;28;20573;-69
2023/03/29 02:21:50;;;;;;;5.90;3.57;;;;;;;4.03;100.00;101751.19;5010545;28;20195;-70
2023/03/29 02:24:19;;;;;;;11.00;4.10;;;;;;;4.05;100.00;101752.16;5007769;28;20727;-70
2023/03/29 02:26:45;;;;;;;10.60;4.20;;;;;;;4.05;100.00;101752.16;5009090;28;20210;-70
2023/03/29 02:29:11;;;;;;;5.90;3.27;;;;;;;4.03;100.00;101755.38;5029157;28;20660;-70
2023/03/29 02:31:52;;;;;;;10.13;3.70;;;;;;;4.00;100.00;101758.59;5027384;28;20202;-69
2023/03/29 02:34:29;;;;;;;9.63;4.43;;;;;;;3.96;100.00;101758.34;5010982;28;20206;-69
2023/03/29 02:37:11;;;;;;;7.70;3.73;;;;;;;3.92;100.00;101761.47;5009354;28;20194;-69
2023/03/29 02:39:38;;;;;;;10.97;4.00;;;;;;;3.92;100.00;101752.19;5007447;28;20194;-69
2023/03/29 02:42:05;;;;;;;12.37;4.23;;;;;;;3.91;100.00;101755.53;4994535;28;20187;-69
2023/03/29 02:44:35;;;;;;;10.93;4.33;;;;;;;3.93;100.00;101751.44;5025752;28;20363;-69
2023/03/29 02:47:32;;;;;;;6.87;3.90;;;;;;;3.93;100.00;101753.09;5023390;28;20219;-69
2023/03/29 02:49:58;;;;;;;7.47;3.60;;;;;;;3.92;100.00;101742.06;4993654;28;20289;-69
2023/03/29 02:52:33;;;;;;;7.47;3.63;;;;;;;3.95;100.00;101738.88;5006268;28;20194;-69
2023/03/29 02:55:01;;;;;;;10.30;4.27;;;;;;;3.93;100.00;101732.81;5024718;28;20657;-69
2023/03/29 02:57:28;;;;;;;11.40;4.13;;;;;;;3.91;100.00;101740.31;5006674;28;20191;-69
2023/03/29 02:59:58;;;;;;;7.07;4.00;;;;;;;3.89;100.00;101729.25;5007588;28;20597;-69
2023/03/29 03:02:24;;;;;;;9.13;3.90;;;;;;;3.90;100.00;101730.97;5025865;28;20663;-69
2023/03/29 03:04:52;;;;;;;6.93;4.33;;;;;;;3.91;100.00;101724.28;5010438;28;20202;-70
2023/03/29 03:07:18;;;;;;;9.17;3.93;;;;;;;3.93;100.00;101723.56;5009883;28;20217;-70
2023/03/29 03:09:46;;;;;;;9.67;4.73;;;;;;;3.93;100.00;101723.56;5010714;28;20186;-70
2023/03/29 03:12:12;;;;;;;9.23;4.20;;;;;;;3.93;100.00;101712.56;5007756;28;20187;-69
2023/03/29 03:14:38;;;;;;;7.27;4.00;;;;;;;3.91;100.00;101720.06;5008960;28;20216;-69
2023/03/29 03:17:05;;;;;;;8.13;4.00;;;;;;;3.90;100.00;101708.19;4996260;28;20721;-71
2023/03/29 03:19:31;;;;;;;8.57;3.87;;;;;;;3.85;100.00;101708.69;5008604;28;20195;-69
2023/03/29 03:21:57;;;;;;;7.97;3.80;;;;;;;3.83;100.00;101710.25;5012613;28;20194;-70
2023/03/29 03:24:22;;;;;;;9.87;4.37;;;;;;;3.77;100.00;101715.81;5005596;28;20211;-70
2023/03/29 03:26:48;;;;;;;8.97;3.67;;;;;;;3.76;100.00;101703.06;4993484;28;20234;-70
2023/03/29 03:29:15;;;;;;;10.57;4.20;;;;;;;3.74;100.00;101705.53;5008636;28;20200;-70
2023/03/29 03:32:08;;;;;;;8.83;4.17;;;;;;;3.70;100.00;101700.19;5005457;28;20187;-71
2023/03/29 03:34:52;;;;;;;8.67;4.53;;;;;;;3.71;100.00;101707.88;5025903;28;20229;-71
2023/03/29 03:37:21;;;;;;;7.77;3.67;;;;;;;3.71;100.00;101699.38;5009248;28;20301;-71
2023/03/29 03:39:46;;;;;;;9.70;3.77;;;;;;;3.68;100.00;101704.28;5023786;28;20202;-70
2023/03/29 03:42:14;;;;;;;7.63;3.80;;;;;;;3.64;100.00;101693.06;5005712;28;20230;-70
2023/03/29 03:44:41;;;;;;;10.07;3.97;;;;;;;3.61;100.00;101692.91;5007662;28;20209;-70
2023/03/29 03:47:21;;;;;;;11.20;4.47;;;;;;;3.55;100.00;101697.59;5005807;28;20310;-70
2023/03/29 03:49:47;;;;;;;8.33;3.97;;;;;;;3.52;100.00;101699.94;5010438;28;20293;-70
2023/03/29 03:52:13;;;;;;;8.77;3.67;;;;;;;3.51;100.00;101702.38;5009080;28;20194;-70
2023/03/29 03:54:39;;;;;;;9.93;3.77;;;;;;;3.52;100.00;101696.53;5008961;28;20261;-70
2023/03/29 03:57:27;;;;;;;7.33;4.13;;;;;;;3.55;100.00;101692.53;5025923;28;20285;-70
2023/03/29 03:59:53;;;;;;;8.33;3.70;;;;;;;3.59;100.00;101688.53;5004755;28;20210;-70
2023/03/29 04:02:25;;;;;;;8.67;3.50;;;;;;;3.57;100.00;101674.91;5028296;28;20207;-70
2023/03/29 04:04:51;;;;;;;11.00;3.53;;;;;;;3.56;100.00;101675.69;5004960;28;20280;-70
2023/03/29 04:07:17;;;;;;;6.33;3.67;;;;;;;3.56;100.00;101678.22;5010169;28;20217;-70
2023/03/29 04:09:55;;;;;;;5.47;3.57;;;;;;;3.56;100.00;101674.03;5027593;28;20680;-70
2023/03/29 04:12:58;;;;;;;10.30;4.07;;;;;;;3.58;100.00;101671.63;4984086;28;20232;-70
2023/03/29 04:15:25;;;;;;;10.37;3.80;;;;;;;3.55;100.00;101667.22;4998007;28;20207;-70
2023/03/29 04:17:59;;;;;;;8.80;3.57;;;;;;;3.53;100.00;101672.97;5006872;28;20232;-70
2023/03/29 04:20:44;;;;;;;11.10;3.53;;;;;;;3.54;100.00;101669.69;5006494;28;20232;-71
2023/03/29 04:23:11;;;;;;;9.03;3.70;;;;;;;3.54;100.00;101673.06;5005150;28;20210;-70
2023/03/29 04:25:37;;;;;;;9.50;3.30;;;;;;;3.53;100.00;101678.03;5011633;28;20253;-70
2023/03/29 04:28:22;;;;;;;7.30;3.67;;;;;;;3.54;100.00;101677.28;5021952;28;20343;-70
2023/03/29 04:31:01;;;;;;;9.73;3.80;;;;;;;3.51;100.00;101677.97;5008751;28;20684;-70
2023/03/29 04:33:46;;;;;;;7.10;3.23;;;;;;;3.52;100.00;101681.34;5007214;28;20221;-70
2023/03/29 04:36:14;;;;;;;7.07;4.00;;;;;;;3.53;100.00;101678.91;5008563;28;20190;-71
2023/03/29 04:38:40;;;;;;;8.47;3.40;;;;;;;3.50;100.00;101675.34;5008326;28;20186;-70
2023/03/29 04:41:12;;;;;;;4.97;3.27;;;;;;;3.55;100.00;101673.94;5008896;28;20278;-70
2023/03/29 04:43:55;;;;;;;6.50;3.23;;;;;;;3.58;100.00;101674.16;5001433;28;20336;-70
2023/03/29 04:46:25;;;;;;;6.50;3.37;;;;;;;3.58;100.00;101674.16;5009215;28;20219;-70
2023/03/29 04:49:09;;;;;;;10.30;3.97;;;;;;;3.61;100.00;101669.25;5023022;28;20251;-70
2023/03/29 04:51:38;;;;;;;8.80;3.13;;;;;;;3.57;100.00;101665.66;5010097;28;20240;-70
2023/03/29 04:54:04;;;;;;;7.03;3.50;;;;;;;3.59;100.00;101658.16;5007379;28;20341;-70
2023/03/29 04:56:37;;;;;;;10.83;3.50;;;;;;;3.59;100.00;101663.22;5009333;28;20202;-70
2023/03/29 04:59:22;;;;;;;7.67;3.30;;;;;;;3.61;100.00;101649.88;5004782;28;20194;-70
2023/03/29 05:01:48;;;;;;;7.70;3.43;;;;;;;3.61;100.00;101657.47;5008807;28;20191;-70
2023/03/29 05:04:13;;;;;;;7.73;3.83;;;;;;;3.65;100.00;101654.34;5002884;28;20699;-70
2023/03/29 05:06:49;;;;;;;7.57;3.90;;;;;;;3.65;100.00;101656.88;5005398;28;20210;-70
2023/03/29 05:09:15;;;;;;;9.30;3.93;;;;;;;3.66;100.00;101656.09;4994681;28;20812;-69
2023/03/29 05:11:49;;;;;;;6.80;4.00;;;;;;;3.71;100.00;101658.88;5002034;28;20189;-70
2023/03/29 05:14:15;;;;;;;6.97;4.33;;;;;;;3.73;100.00;101655.66;5004249;28;20211;-69
2023/03/29 05:16:43;;;;;;;12.40;4.53;;;;;;;3.75;100.00;101663.34;5009768;28;20182;-69
2023/03/29 05:19:10;;;;;;;9.53;4.13;;;;;;;3.73;100.00;101660.72;5008326;28;20191;-69
2023/03/29 05:21:39;;;;;;;6.87;4.23;;;;;;;3.75;100.00;101649.03;5008915;28;20236;-70
2023/03/29 05:24:08;;;;;;;6.30;4.17;;;;;;;3.79;100.00;101648.44;5005886;28;20206;-69
2023/03/29 05:26:52;;;;;;;9.13;4.17;;;;;;;3.81;100.00;101646.84;5006815;28;20222;-69
2023/03/29 05:29:19;;;;;;;8.97;4.17;;;;;;;3.82;100.00;101653.66;5007982;28;20187;-70
2023/03/29 05:31:51;;;;;;;8.83;4.90;;;;;;;3.80;100.00;101650.19;5004962;28;20203;-70
2023/03/29 05:34:17;;;;;;;7.37;3.83;;;;;;;3.81;100.00;101649.38;5003495;28;20206;-70
2023/03/29 05:36:47;;;;;;;8.20;4.17;;;;;;;3.83;100.00;101652.91;5008240;28;20182;-70
2023/03/29 05:39:14;;;;;;;9.77;4.30;;;;;;;3.85;100.00;101635.22;5005392;28;20183;-69
2023/03/29 05:41:40;;;;;;;9.53;4.40;;;;;;;3.86;100.00;101637.88;5007960;28;20218;-70
2023/03/29 05:44:24;;;;;;;11.50;5.47;;;;;;;3.91;100.00;101625.50;5021598;28;20256;-69
2023/03/29 05:46:56;;;;;;;12.13;4.83;;;;;;;3.94;100.00;101625.63;5009498;28;20253;-69
2023/03/29 05:49:22;;;;;;;7.50;5.07;;;;;;;3.96;100.00;101626.63;5006725;28;20210;-70
2023/03/29 05:51:57;;;;;;;9.03;4.37;;;;;;;3.96;100.00;101624.09;5007515;28;20189;-69
2023/03/29 05:54:24;;;;;;;8.70;4.43;;;;;;;3.96;100.00;101617.34;5004459;28;20298;-69
2023/03/29 05:56:50;;;;;;;11.57;5.47;;;;;;;4.03;100.00;101621.09;5007538;28;20660;-70
2023/03/29 05:59:16;;;;;;;5.63;3.90;;;;;;;4.07;100.00;101618.84;5005565;28;20205;-70
2023/03/29 06:01:45;;;;;;;6.70;4.30;;;;;;;4.09;100.00;101619.81;5004909;28;21140;-70
2023/03/29 06:04:12;;;;;;;6.50;4.60;;;;;;;4.14;100.00;101615.88;5006183;28;20214;-70
2023/03/29 06:06:45;;;;;;;7.00;4.23;;;;;;;4.21;100.00;101612.91;5006312;28;20289;-70
2023/03/29 06:09:11;;;;;;;9.40;4.60;;;;;;;4.25;100.00;101617.38;4993382;28;20190;-70
2023/03/29 06:11:56;;;;;;;7.63;4.40;;;;;;;4.33;100.00;101608.50;5022510;28;20212;-70
2023/03/29 06:14:42;;;;;;;7.00;4.43;;;;;;;4.42;100.00;101606.50;5023045;28;20263;-69
2023/03/29 06:17:21;;;;;;;6.97;4.73;;;;;;;4.49;100.00;101613.66;5004708;28;20797;-70
2023/03/29 06:19:47;;;;;;;14.03;5.37;;;;;;;4.55;100.00;101610.59;5005832;28;20209;-70
2023/03/29 06:22:13;;;;;;;10.40;4.67;;;;;;;4.57;100.00;101609.00;5007990;28;20186;-69
2023/03/29 06:24:39;;;;;;;7.43;4.40;;;;;;;4.60;100.00;101604.97;5003698;28;20245;-70
2023/03/29 06:27:10;;;;;;;7.63;4.83;;;;;;;4.68;100.00;101611.34;5007068;28;20214;-70
2023/03/29 06:29:36;;;;;;;8.80;4.93;;;;;;;4.74;100.00;101616.75;5006657;28;20256;-71
2023/03/29 06:32:02;;;;;;;10.10;5.33;;;;;;;4.81;100.00;101612.88;5003934;28;20185;-72
2023/03/29 06:34:49;;;;;;;8.30;5.00;;;;;;;4.83;100.00;101621.47;5007338;28;20210;-70
2023/03/29 06:37:28;;;;;;;7.53;5.23;;;;;;;4.87;100.00;101606.47;5007657;28;20243;-70
2023/03/29 06:40:06;;;;;;;10.97;5.03;;;;;;;4.87;100.00;101614.09;5005361;28;20194;-69
2023/03/29 06:42:40;;;;;;;9.80;5.67;;;;;;;4.94;100.00;101620.38;5024734;28;20697;-69
2023/03/29 06:45:35;;;;;;;10.40;5.33;;;;;;;5.00;100.00;101618.16;5005758;28;20202;-70
2023/03/29 06:48:06;;;;;;;11.73;6.07;;;;;;;5.09;100.00;101619.53;5009538;28;20260;-70
2023/03/29 06:50:32;;;;;;;8.03;5.17;;;;;;;5.12;100.00;101611.22;4993241;28;20286;-70
2023/03/29 06:53:12;;;;;;;7.97;5.50;;;;;;;5.16;100.00;101613.13;4993147;28;20246;-71
2023/03/29 06:55:40;;;;;;;8.17;5.20;;;;;;;5.25;100.00;101613.63;5009892;28;20566;-71
2023/03/29 06:58:38;;;;;;;9.63;5.30;;;;;;;5.31;100.00;101611.38;5009893;28;20190;-72
2023/03/29 07:01:30;;;;;;;7.30;4.77;;;;;;;5.36;100.00;101613.38;5028240;28;20206;-71
2023/03/29 07:04:08;;;;;;;10.50;5.60;;;;;;;5.46;100.00;101622.34;5009968;28;20651;-71
2023/03/29 07:06:47;;;;;;;7.90;4.40;;;;;;;5.51;100.00;101621.78;5008697;28;20212;-71
2023/03/29 07:09:15;;;;;;;8.03;4.83;;;;;;;5.61;100.00;101618.06;5008113;28;20616;-71
2023/03/29 07:12:01;;;;;;;7.67;5.03;;;;;;;5.57;100.00;101628.84;5028070;28;20671;-70
2023/03/29 07:14:28;;;;;;;8.13;4.87;;;;;;;5.58;100.00;101622.97;4990611;28;20215;-70
2023/03/29 07:16:55;;;;;;;11.00;5.60;;;;;;;5.59;100.00;101617.09;5011566;28;20187;-71
2023/03/29 07:19:29;;;;;;;8.80;5.53;;;;;;;5.66;100.00;101625.09;5006335;28;20248;-71
2023/03/29 07:21:55;;;;;;;8.70;4.80;;;;;;;5.73;100.00;101623.75;5030438;28;20202;-70
2023/03/29 07:24:29;;;;;;;6.93;4.60;;;;;;;5.79;100.00;101618.97;5003724;28;20580;-71
2023/03/29 07:26:57;;;;;;;6.73;4.57;;;;;;;5.83;100.00;101613.28;5009611;28;20240;-70
2023/03/29 07:29:24;;;;;;;9.77;6.23;;;;;;;5.93;100.00;101607.88;5008788;28;20190;-70
2023/03/29 07:31:51;;;;;;;9.73;5.10;;;;;;;6.17;100.00;101597.25;5010293;28;20722;-70
2023/03/29 07:34:42;;;;;;;11.17;5.87;;;;;;;6.27;100.00;101603.66;5007975;28;20703;-71
2023/03/29 07:37:16;;;;;;;8.07;5.20;;;;;;;6.32;100.00;101595.47;5006252;28;20226;-70
2023/03/29 07:39:43;;;;;;;6.47;5.27;;;;;;;6.39;100.00;101596.59;5004346;28;20229;-70
2023/03/29 07:42:45;;;;;;;9.03;5.17;;;;;;;6.53;100.00;101593.94;4968336;28;20439;-70
2023/03/29 07:45:15;;;;;;;9.27;5.00;;;;;;;6.64;100.00;101591.88;5020087;28;20209;-70
2023/03/29 07:47:58;;;;;;;10.47;5.87;;;;;;;6.69;100.00;101592.97;5009512;28;20217;-70
2023/03/29 07:50:26;;;;;;;8.20;5.40;;;;;;;6.80;100.00;101581.59;5006909;28;20195;-70
2023/03/29 07:52:55;;;;;;;10.73;5.40;;;;;;;6.98;100.00;101575.69;5003222;28;20234;-70
2023/03/29 07:55:21;;;;;;;7.23;4.53;;;;;;;7.14;100.00;101565.38;5001519;28;20198;-70
2023/03/29 07:57:55;;;;;;;7.13;4.47;;;;;;;7.33;100.00;101564.53;5008745;28;20228;-70
2023/03/29 08:00:23;;;;;;;7.77;4.50;;;;;;;7.35;100.00;101547.63;4992429;28;20743;-71
2023/03/29 08:03:08;;;;;;;6.17;4.37;;;;;;;7.27;100.00;101546.44;5007051;28;20218;-70
2023/03/29 08:05:33;;;;;;;7.60;4.03;;;;;;;7.50;100.00;101545.72;5006102;28;20240;-70
2023/03/29 08:08:05;;;;;;;8.60;4.00;;;;;;;7.39;100.00;101542.75;4993996;28;20206;-70
2023/03/29 08:11:00;;;;;;;5.27;3.90;;;;;;;7.23;100.00;101559.84;5016558;28;20202;-70
2023/03/29 08:13:33;;;;;;;5.50;4.00;;;;;;;7.25;100.00;101565.84;5008741;28;20221;-70
2023/03/29 08:16:19;;;;;;;7.83;4.17;;;;;;;7.41;100.00;101570.84;5016837;28;20234;-71
2023/03/29 08:18:51;;;;;;;5.70;4.17;;;;;;;7.35;100.00;101553.59;5009667;28;20190;-71
2023/03/29 08:21:19;;;;;;;7.47;4.00;;;;;;;7.24;100.00;101548.84;5010242;28;20769;-71
2023/03/29 08:23:47;;;;;;;6.40;4.20;;;;;;;7.32;100.00;101570.44;5009428;28;20281;-71
2023/03/29 08:26:26;;;;;;;7.47;4.77;;;;;;;7.27;100.00;101560.03;5005791;28;20264;-70
2023/03/29 08:28:53;;;;;;;7.43;4.33;;;;;;;7.20;100.00;101550.41;5009842;28;20201;-70
2023/03/29 08:31:21;;;;;;;6.70;4.03;;;;;;;7.22;100.00;101555.53;5006380;28;20676;-70
2023/03/29 08:33:46;;;;;;;9.03;4.13;;;;;;;7.33;100.00;101565.38;5008029;28;20237;-74
2023/03/29 08:36:35;;;;;;;6.97;4.20;;;;;;;7.51;100.00;101563.63;5021490;28;20917;-70
2023/03/29 08:39:08;;;;;;;5.10;3.83;;;;;;;7.43;100.00;101538.63;5008139;28;20206;-70
2023/03/29 08:41:41;;;;;;;10.07;4.17;;;;;;;7.44;100.00;101555.66;5008117;28;20233;-70
2023/03/29 08:44:36;;;;;;;6.63;4.17;;;;;;;7.43;100.00;101559.03;5009572;28;20206;-70
2023/03/29 08:47:10;;;;;;;6.73;4.17;;;;;;;7.39;100.00;101560.56;5006072;28;20226;-71
2023/03/29 08:49:44;;;;;;;6.57;4.20;;;;;;;7.44;100.00;101568.41;5007526;28;20626;-71
2023/03/29 08:52:40;;;;;;;7.43;4.10;;;;;;;7.36;100.00;101562.97;4975814;28;20195;-71
2023/03/29 08:55:35;;;;;;;4.70;3.63;;;;;;;7.50;100.00;101564.44;5022667;28;20198;-71
2023/03/29 08:58:24;;;;;;;5.53;3.93;;;;;;;7.43;100.00;101551.38;5010672;28;20561;-71
2023/03/29 09:00:54;;;;;;;6.73;4.23;;;;;;;7.50;100.00;101550.81;5010039;28;20206;-72
2023/03/29 09:04:08;;;;;;;6.40;3.67;;;;;;;7.44;100.00;101546.34;5008834;28;20731;-71
2023/03/29 09:06:53;;;;;;;6.50;4.57;;;;;;;7.45;100.00;101558.28;5017414;28;20798;-70
2023/03/29 09:09:32;;;;;;;6.87;4.20;;;;;;;7.59;100.00;101569.06;4992652;28;20729;-70
2023/03/29 09:12:15;;;;;;;5.57;3.83;;;;;;;7.54;100.00;101552.69;5007936;28;20549;-71
2023/03/29 09:14:46;;;;;;;6.90;3.70;;;;;;;7.59;100.00;101544.44;4992435;28;20683;-71
2023/03/29 09:17:15;;;;;;;7.23;4.33;;;;;;;7.65;100.00;101541.31;5007651;28;20235;-71
2023/03/29 09:20:10;;;;;;;5.07;4.33;;;;;;;7.78;100.00;101534.22;5007379;28;20195;-71
2023/03/29 09:22:47;;;;;;;9.53;4.27;;;;;;;7.90;100.00;101516.88;5005984;28;20210;-71
2023/03/29 09:25:35;;;;;;;9.23;4.77;;;;;;;8.04;100.00;101494.47;5024871;28;20718;-71
2023/03/29 09:28:05;;;;;;;6.73;4.77;;;;;;;8.18;100.00;101471.25;5005741;28;20598;-70
2023/03/29 09:30:57;;;;;;;7.83;4.20;;;;;;;8.33;100.00;101463.34;5021444;28;20194;-70
2023/03/29 09:33:41;;;;;;;8.73;4.70;;;;;;;8.46;100.00;101448.56;5025262;28;20772;-71
2023/03/29 09:36:37;;;;;;;7.73;4.67;;;;;;;8.59;100.00;101449.88;4988419;28;20280;-70
2023/03/29 09:39:04;;;;;;;8.13;4.33;;;;;;;8.68;100.00;101434.91;5006807;28;20289;-71
2023/03/29 09:41:40;;;;;;;7.13;4.37;;;;;;;8.84;100.00;101396.34;5009759;28;20201;-70
2023/03/29 09:44:14;;;;;;;7.20;4.37;;;;;;;9.23;100.00;101390.91;5009111;28;20571;-70
2023/03/29 09:46:47;;;;;;;7.63;4.73;;;;;;;9.68;100.00;101378.75;4992874;28;20210;-70
2023/03/29 09:49:20;;;;;;;7.03;4.70;;;;;;;10.56;100.00;101304.63;5007835;28;20197;-70
2023/03/29 09:51:48;;;;;;;7.17;5.00;;;;;;;10.00;100.00;101258.66;5016478;28;20187;-70
2023/03/29 09:54:15;;;;;;;6.03;4.53;;;;;;;10.33;100.00;101212.69;4993776;28;20274;-71
2023/03/29 09:56:59;;;;;;;5.33;4.50;;;;;;;10.69;100.00;101204.22;5021162;28;20201;-71
2023/03/29 09:59:25;;;;;;;5.87;4.70;;;;;;;10.80;100.00;101138.78;5008452;28;20182;-71
2023/03/29 10:01:50;;;;;;;5.30;4.20;;;;;;;10.91;100.00;101144.13;5025386;28;20535;-71
2023/03/29 10:04:16;;;;;;;5.87;4.30;;;;;;;10.53;100.00;101124.44;5008168;28;20214;-71
2023/03/29 10:06:51;;;;;;;5.90;4.27;;;;;;;10.85;100.00;101167.06;5006605;28;20321;-70
2023/03/29 10:09:20;;;;;;;6.47;4.70;;;;;;;11.17;100.00;101109.69;5008808;28;20187;-71
2023/03/29 10:11:55;;;;;;;5.87;4.33;;;;;;;11.47;100.00;101085.53;5005794;28;20198;-71
2023/03/29 10:14:53;;;;;;;9.07;4.83;;;;;;;11.32;100.00;101120.25;5021737;28;20222;-70
2023/03/29 10:17:23;;;;;;;7.87;4.43;;;;;;;10.82;100.00;101137.09;5000071;28;20217;-71
2023/03/29 10:19:56;;;;;;;5.67;4.50;;;;;;;11.20;100.00;101155.91;5027275;28;20233;-71
2023/03/29 10:22:24;;;;;;;5.33;4.03;;;;;;;10.89;100.00;101107.38;5008343;28;20187;-70
2023/03/29 10:24:52;;;;;;;7.67;4.60;;;;;;;11.08;100.00;101132.56;5027011;28;20710;-70
2023/03/29 10:27:23;;;;;;;5.83;4.23;;;;;;;11.40;100.00;101076.00;5025740;28;20222;-71
2023/03/29 10:29:50;;;;;;;5.50;4.50;;;;;;;10.96;100.00;101086.19;5008534;28;20277;-71
2023/03/29 10:32:24;;;;;;;7.47;4.63;;;;;;;10.99;100.00;101127.25;5030107;28;20209;-70
2023/03/29 10:34:51;;;;;;;6.33;4.60;;;;;;;10.73;100.00;101184.72;5028721;28;20219;-70
2023/03/29 10:37:18;;;;;;;6.93;4.40;;;;;;;10.49;100.00;101223.38;5028435;28;20270;-70
2023/03/29 10:39:45;;;;;;;9.03;4.90;;;;;;;10.57;100.00;101264.53;5025570;28;20194;-70
2023/03/29 10:42:22;;;;;;;6.27;4.80;;;;;;;10.64;100.00;101276.69;5027285;28;20198;-70
2023/03/29 10:44:58;;;;;;;6.13;4.63;;;;;;;10.28;100.00;101271.44;5028198;28;20220;-70
2023/03/29 10:47:23;;;;;;;7.60;4.90;;;;;;;10.31;100.00;101301.34;5027246;28;20214;-70
2023/03/29 10:49:52;;;;;;;7.50;5.10;;;;;;;10.39;100.00;101334.03;5031575;28;20193;-70
2023/03/29 10:52:18;;;;;;;7.07;5.33;;;;;;;10.29;100.00;101334.59;5046422;28;20228;-69
2023/03/29 10:54:44;;;;;;;8.23;5.30;;;;;;;10.23;100.00;101344.66;5048143;28;20602;-70
2023/03/29 10:57:15;;;;;;;8.30;5.17;;;;;;;10.20;100.00;101357.38;5047427;28;20200;-70
2023/03/29 10:59:53;;;;;;;8.00;5.47;;;;;;;10.09;100.00;101371.53;5032292;28;20214;-70
2023/03/29 11:02:37;;;;;;;9.33;5.20;;;;;;;9.92;100.00;101394.84;5048688;28;20189;-70
2023/03/29 11:05:12;;;;;;;10.80;5.07;;;;;;;9.98;100.00;101435.97;5049400;28;20189;-70
2023/03/29 11:08:04;;;;;;;10.10;4.70;;;;;;;10.16;100.00;101423.75;5025943;28;20221;-69
2023/03/29 11:10:40;;;;;;;6.47;4.57;;;;;;;10.40;100.00;101389.53;5050403;28;20276;-70
2023/03/29 11:13:27;;;;;;;11.37;5.43;;;;;;;10.89;100.00;101332.81;5043951;28;20225;-70
2023/03/29 11:16:21;;;;;;;7.47;4.93;;;;;;;10.87;100.00;101288.38;5048235;28;20216;-69
2023/03/29 11:18:53;;;;;;;7.60;4.80;;;;;;;10.85;100.00;101274.66;5044670;28;20236;-70
2023/03/29 11:21:40;;;;;;;6.93;4.97;;;;;;;10.72;100.00;101291.41;5049146;28;20240;-70
2023/03/29 11:24:32;;;;;;;6.43;4.03;;;;;;;10.91;100.00;101291.03;5029226;28;20217;-70
2023/03/29 11:27:18;;;;;;;11.67;5.00;;;;;;;11.95;100.00;101208.81;5044583;28;20292;-70
2023/03/29 11:30:05;;;;;;;7.13;4.50;;;;;;;11.77;100.00;101182.78;5046635;28;20194;-70
2023/03/29 11:32:45;;;;;;;8.63;4.83;;;;;;;12.38;100.00;101127.47;5029110;28;20209;-70
2023/03/29 11:35:28;;;;;;;6.03;4.87;;;;;;;12.11;100.00;101100.44;5044618;28;20599;-70
2023/03/29 11:38:16;;;;;;;6.07;4.53;;;;;;;11.70;100.00;101192.06;5024264;28;20241;-71
2023/03/29 11:41:24;;;;;;;8.43;4.77;;;;;;;11.58;100.00;101253.34;5042210;28;20701;-70
2023/03/29 11:43:53;;;;;;;6.00;4.60;;;;;;;11.46;100.00;101280.38;5036410;28;20225;-70
2023/03/29 11:46:28;;;;;;;7.17;4.83;;;;;;;11.21;100.00;101268.72;5029049;28;20217;-70
2023/03/29 11:49:15;;;;;;;6.57;4.47;;;;;;;11.20;100.00;101304.56;5047006;28;20185;-70
2023/03/29 11:52:04;;;;;;;5.80;4.17;;;;;;;11.21;100.00;101347.31;5049147;28;20202;-70
2023/03/29 11:54:40;;;;;;;6.23;4.73;;;;;;;11.06;100.00;101337.53;5048538;28;20201;-70